Time;durP1;ratioP1;P1;durP2;ratioP2;P2;SDS_P1;SDS_P2;PMS_P1;PMS_P2;Temp;Humidity;BMP_temperature;BMP_pressure;BME280_temperature;BME280_humidity;BME280_pressure;Samples;Min_cycle;Max_cycle;Signal;HPM_P1;HPM_P2
2021/03/21 00:00:37;;;;;;;4.03;3.53;;;;;;;4.37;42.07;99633.97;5109700;27;42325;-76
2021/03/21 00:03:05;;;;;;;4.50;3.63;;;;;;;4.36;42.02;99647.13;5107913;28;39891;-77
2021/03/21 00:05:32;;;;;;;6.17;3.97;;;;;;;4.36;41.93;99641.88;5107802;28;41640;-77
2021/03/21 00:08:03;;;;;;;4.67;4.27;;;;;;;4.25;41.97;99623.81;5090368;28;41809;-77
2021/03/21 00:10:32;;;;;;;7.03;4.20;;;;;;;4.34;42.04;99634.91;5107806;28;43469;-76
2021/03/21 00:13:00;;;;;;;4.50;3.97;;;;;;;4.26;42.02;99620.28;5107614;28;39716;-76
2021/03/21 00:15:28;;;;;;;6.20;4.43;;;;;;;4.33;41.92;99627.09;5109320;27;42033;-78
2021/03/21 00:17:55;;;;;;;4.23;3.83;;;;;;;4.34;41.98;99629.66;5107253;28;42510;-76
2021/03/21 00:20:26;;;;;;;6.43;3.57;;;;;;;4.24;41.98;99611.59;5109325;27;42991;-76
2021/03/21 00:22:53;;;;;;;6.13;4.10;;;;;;;4.31;41.80;99623.66;5107014;28;39843;-76
2021/03/21 00:25:23;;;;;;;5.57;3.77;;;;;;;4.31;41.85;99614.03;5107691;28;42393;-76
2021/03/21 00:27:51;;;;;;;4.73;3.77;;;;;;;4.29;41.80;99620.22;5108276;28;42864;-76
2021/03/21 00:30:22;;;;;;;5.20;3.87;;;;;;;4.32;42.11;99609.66;5110745;28;42443;-76
2021/03/21 00:32:50;;;;;;;6.27;3.97;;;;;;;4.04;41.93;99566.69;5090349;28;39329;-76
2021/03/21 00:35:17;;;;;;;4.63;3.47;;;;;;;4.17;41.88;99586.44;5090232;28;40605;-77
2021/03/21 00:37:45;;;;;;;5.20;4.00;;;;;;;4.30;42.35;99603.59;5091813;28;43514;-76
2021/03/21 00:40:18;;;;;;;6.13;3.90;;;;;;;4.27;42.88;99606.28;5106693;28;41343;-76
2021/03/21 00:42:45;;;;;;;5.00;3.67;;;;;;;4.26;42.30;99599.31;5110301;28;40922;-77
2021/03/21 00:45:16;;;;;;;6.47;4.13;;;;;;;4.27;42.16;99606.28;5093481;28;40783;-76
2021/03/21 00:47:43;;;;;;;5.33;3.83;;;;;;;4.26;42.46;99596.69;5103111;27;42811;-76
2021/03/21 00:50:15;;;;;;;5.47;3.70;;;;;;;4.27;42.79;99601.03;5106745;28;42123;-76
2021/03/21 00:52:42;;;;;;;5.40;4.10;;;;;;;4.28;42.65;99587.03;5123882;27;39624;-76
2021/03/21 00:55:12;;;;;;;4.27;3.70;;;;;;;4.32;42.39;99580.81;5090568;28;41369;-76
2021/03/21 00:57:40;;;;;;;5.33;4.17;;;;;;;4.32;42.51;99579.06;5107221;28;42697;-76
2021/03/21 01:00:10;;;;;;;5.27;3.60;;;;;;;4.32;42.35;99567.72;5111656;27;42197;-76
2021/03/21 01:02:37;;;;;;;4.10;3.70;;;;;;;4.17;42.26;99537.50;5106419;28;39968;-77
2021/03/21 01:05:07;;;;;;;4.30;3.90;;;;;;;4.21;42.60;99543.50;5106237;28;42475;-76
2021/03/21 01:07:34;;;;;;;4.30;3.63;;;;;;;4.29;42.74;99559.91;5091083;28;43652;-76
2021/03/21 01:10:01;;;;;;;4.07;3.27;;;;;;;4.27;43.18;99548.59;5106006;28;42584;-76
2021/03/21 01:12:28;;;;;;;5.13;3.43;;;;;;;4.26;42.55;99546.88;5102106;28;40021;-76
2021/03/21 01:14:55;;;;;;;3.57;3.03;;;;;;;4.31;42.34;99555.50;5092955;28;40709;-76
2021/03/21 01:17:23;;;;;;;5.03;3.93;;;;;;;4.28;42.42;99551.19;5110124;28;42780;-76
2021/03/21 01:19:51;;;;;;;5.40;3.50;;;;;;;4.28;42.22;99545.06;5091934;27;42183;-75
2021/03/21 01:22:18;;;;;;;3.73;3.10;;;;;;;4.28;42.19;99550.31;5089516;28;40914;-76
2021/03/21 01:24:45;;;;;;;5.23;3.63;;;;;;;4.27;41.88;99538.13;5090576;28;41704;-76
2021/03/21 01:27:12;;;;;;;4.70;3.23;;;;;;;4.22;41.86;99534.72;5096117;28;42636;-76
2021/03/21 01:29:39;;;;;;;4.97;3.73;;;;;;;4.25;41.95;99537.28;5126100;27;41227;-76
2021/03/21 01:32:08;;;;;;;4.73;3.40;;;;;;;4.24;42.29;99523.31;5109528;28;41328;-77
2021/03/21 01:34:36;;;;;;;3.97;3.13;;;;;;;4.21;42.18;99519.91;5109232;28;41480;-76
2021/03/21 01:37:05;;;;;;;3.43;2.97;;;;;;;4.16;42.27;99508.69;5108154;27;43492;-76
2021/03/21 01:39:32;;;;;;;4.23;3.37;;;;;;;4.27;42.18;99517.13;5091217;28;43024;-76
2021/03/21 01:42:03;;;;;;;4.53;3.23;;;;;;;4.26;42.68;99510.16;5094484;28;39826;-76
2021/03/21 01:44:30;;;;;;;3.53;3.03;;;;;;;4.26;42.43;99499.69;5147649;27;41588;-76
2021/03/21 01:47:33;;;;;;;4.20;3.47;;;;;;;4.25;42.75;99492.72;5111540;28;41728;-76
2021/03/21 01:50:25;;;;;;;4.17;3.23;;;;;;;4.25;43.20;99492.72;5093476;28;42199;-76
2021/03/21 01:52:54;;;;;;;4.03;3.20;;;;;;;4.24;42.57;99488.38;5113424;28;39584;-77
2021/03/21 01:55:23;;;;;;;5.43;3.27;;;;;;;4.18;42.82;99485.94;5112480;28;41711;-76
2021/03/21 01:57:51;;;;;;;4.10;3.40;;;;;;;4.14;42.77;99468.56;5096021;28;42013;-76
2021/03/21 02:00:21;;;;;;;3.70;3.17;;;;;;;4.18;42.88;99473.69;5075743;28;41324;-76
2021/03/21 02:02:48;;;;;;;4.10;3.00;;;;;;;4.21;42.46;99481.44;5110838;28;39772;-76
2021/03/21 02:05:15;;;;;;;4.97;3.60;;;;;;;4.24;42.60;99481.38;5112274;28;41433;-76
2021/03/21 02:08:06;;;;;;;4.73;3.53;;;;;;;4.24;42.76;99476.13;5096126;28;41524;-76
2021/03/21 02:10:44;;;;;;;4.80;3.40;;;;;;;4.18;43.04;99464.97;5112548;28;42177;-76
2021/03/21 02:13:18;;;;;;;4.07;3.23;;;;;;;4.28;42.63;99476.91;5110556;28;39958;-76
2021/03/21 02:15:51;;;;;;;4.50;3.30;;;;;;;4.29;42.59;99483.88;5075817;28;40793;-77
2021/03/21 02:18:28;;;;;;;4.73;3.73;;;;;;;4.31;42.38;99469.84;5092134;28;42526;-76
2021/03/21 02:21:11;;;;;;;4.23;3.20;;;;;;;4.32;43.13;99462.81;5091158;28;43030;-77
2021/03/21 02:24:03;;;;;;;4.67;3.90;;;;;;;4.29;43.12;99452.41;5112047;28;40657;-76
2021/03/21 02:26:46;;;;;;;5.10;3.27;;;;;;;4.37;42.93;99460.06;5112904;28;40764;-76
2021/03/21 02:29:31;;;;;;;4.67;3.53;;;;;;;4.25;42.75;99442.91;5095727;28;42593;-76
2021/03/21 02:32:02;;;;;;;4.13;3.67;;;;;;;4.38;42.92;99457.41;5093969;28;42053;-76
2021/03/21 02:34:41;;;;;;;4.43;3.43;;;;;;;4.39;43.14;99451.25;5092207;28;39648;-76
2021/03/21 02:37:15;;;;;;;4.63;3.50;;;;;;;4.36;43.05;99442.59;5093982;28;42051;-77
2021/03/21 02:39:51;;;;;;;4.03;3.40;;;;;;;4.42;42.92;99447.69;5112498;28;42756;-76
2021/03/21 02:42:23;;;;;;;3.43;3.13;;;;;;;4.42;42.82;99443.31;5095031;28;41234;-75
2021/03/21 02:44:56;;;;;;;4.20;3.03;;;;;;;4.32;43.28;99416.50;5091484;28;40408;-76
2021/03/21 02:47:29;;;;;;;4.67;3.40;;;;;;;4.45;42.80;99443.19;5109342;28;41499;-76
2021/03/21 02:50:00;;;;;;;3.80;2.93;;;;;;;4.47;42.86;99430.91;5094452;28;42705;-76
2021/03/21 02:52:34;;;;;;;3.47;3.13;;;;;;;4.37;42.91;99412.84;5146825;27;43574;-76
2021/03/21 02:55:06;;;;;;;5.53;3.57;;;;;;;4.47;43.05;99430.91;5112507;28;38749;-77
2021/03/21 02:57:38;;;;;;;6.07;3.80;;;;;;;4.47;43.08;99430.03;5099248;28;42436;-76
2021/03/21 03:00:10;;;;;;;6.00;3.67;;;;;;;4.40;43.42;99413.63;5125129;27;43286;-77
2021/03/21 03:02:42;;;;;;;3.17;2.73;;;;;;;4.51;43.22;99427.31;5091809;28;42144;-76
2021/03/21 03:05:13;;;;;;;4.77;3.10;;;;;;;4.53;43.26;99420.25;5092512;28;40018;-75
2021/03/21 03:07:45;;;;;;;4.23;3.50;;;;;;;4.51;43.51;99410.72;5105873;28;41880;-76
2021/03/21 03:10:16;;;;;;;3.83;3.33;;;;;;;4.53;43.18;99408.91;5100340;28;43510;-76
2021/03/21 03:12:47;;;;;;;3.30;3.00;;;;;;;4.54;43.14;99408.84;5092631;28;42487;-77
2021/03/21 03:15:19;;;;;;;4.50;3.20;;;;;;;4.45;43.43;99390.75;5095675;28;40622;-77
2021/03/21 03:17:57;;;;;;;4.60;3.00;;;;;;;4.55;43.32;99413.22;5111932;28;41466;-76
2021/03/21 03:20:35;;;;;;;4.53;3.37;;;;;;;4.49;43.21;99400.25;5113034;27;43423;-76
2021/03/21 03:23:11;;;;;;;3.37;3.07;;;;;;;4.42;43.60;99384.75;5095927;28;42062;-76
2021/03/21 03:25:42;;;;;;;4.77;3.50;;;;;;;4.47;43.63;99394.19;5091421;28;39941;-76
2021/03/21 03:28:14;;;;;;;4.40;2.90;;;;;;;4.40;43.71;99383.94;5092338;28;41613;-76
2021/03/21 03:30:51;;;;;;;3.13;2.83;;;;;;;4.44;43.86;99388.19;5092394;28;42767;-76
2021/03/21 03:33:19;;;;;;;3.50;3.00;;;;;;;4.51;43.70;99395.84;5091971;28;43020;-77
2021/03/21 03:35:47;;;;;;;4.17;2.83;;;;;;;4.45;43.21;99374.19;5091206;28;38943;-76
2021/03/21 03:38:15;;;;;;;4.23;3.83;;;;;;;4.48;43.94;99359.19;5105328;28;42353;-76
2021/03/21 03:40:45;;;;;;;4.73;3.40;;;;;;;4.52;43.79;99355.59;5111387;28;42519;-76
2021/03/21 03:43:25;;;;;;;6.00;3.40;;;;;;;4.50;44.26;99346.91;5112619;27;41805;-76
2021/03/21 03:46:08;;;;;;;3.03;2.67;;;;;;;4.53;44.33;99345.97;5107267;28;40600;-76
2021/03/21 03:48:44;;;;;;;3.80;3.00;;;;;;;4.54;44.32;99352.91;5089749;28;41680;-76
2021/03/21 03:51:17;;;;;;;6.87;3.10;;;;;;;4.53;44.36;99346.81;5107371;28;42893;-76
2021/03/21 03:53:52;;;;;;;3.83;3.13;;;;;;;4.54;44.49;99340.66;5088292;28;41522;-76
2021/03/21 03:56:22;;;;;;;4.23;3.27;;;;;;;4.53;44.34;99341.56;5094685;28;39285;-76
2021/03/21 03:59:02;;;;;;;4.17;3.33;;;;;;;4.52;44.36;99324.13;5145206;27;41317;-76
2021/03/21 04:01:35;;;;;;;3.33;3.03;;;;;;;4.55;44.61;99333.66;5104550;28;42134;-76
2021/03/21 04:04:15;;;;;;;4.07;3.30;;;;;;;4.55;44.86;99344.16;5090304;28;41587;-75
2021/03/21 04:06:48;;;;;;;5.10;3.50;;;;;;;4.55;45.04;99354.63;5091498;28;40637;-76
2021/03/21 04:09:19;;;;;;;5.03;3.50;;;;;;;4.56;45.05;99345.88;5091819;28;42466;-77
2021/03/21 04:11:53;;;;;;;6.57;4.13;;;;;;;4.57;45.02;99353.69;5105176;28;42522;-77
2021/03/21 04:14:26;;;;;;;5.77;4.30;;;;;;;4.55;45.88;99345.00;5157838;27;42495;-76
2021/03/21 04:17:01;;;;;;;5.37;4.43;;;;;;;4.55;46.25;99334.53;5132323;28;40764;-76
2021/03/21 04:19:35;;;;;;;7.77;5.07;;;;;;;4.61;46.48;99342.19;5133261;27;41902;-77
2021/03/21 04:22:05;;;;;;;6.87;4.87;;;;;;;4.61;46.90;99331.69;5114992;28;42362;-75
2021/03/21 04:24:36;;;;;;;6.83;5.07;;;;;;;4.57;47.05;99330.09;5109697;28;43308;-76
2021/03/21 04:27:10;;;;;;;6.80;5.43;;;;;;;4.60;47.62;99332.59;5096716;28;39033;-76
2021/03/21 04:29:42;;;;;;;7.57;5.27;;;;;;;4.59;47.77;99317.75;5093739;28;40460;-76
2021/03/21 04:32:14;;;;;;;6.37;5.37;;;;;;;4.62;48.26;99322.91;5109992;28;42119;-76
2021/03/21 04:34:45;;;;;;;6.83;5.83;;;;;;;4.61;48.68;99308.09;5073059;28;42691;-76
2021/03/21 04:37:13;;;;;;;7.97;5.90;;;;;;;4.65;49.22;99324.59;5089951;28;40716;-77
2021/03/21 04:39:42;;;;;;;7.83;6.23;;;;;;;4.59;48.89;99303.78;5098381;28;40803;-76
2021/03/21 04:42:16;;;;;;;7.10;6.27;;;;;;;4.66;49.24;99316.69;5110273;28;42718;-76
2021/03/21 04:44:49;;;;;;;10.87;6.67;;;;;;;4.56;49.73;99296.91;5093647;28;42169;-76
2021/03/21 04:47:22;;;;;;;11.80;6.23;;;;;;;4.60;49.51;99295.00;5109664;28;39508;-77
2021/03/21 04:49:49;;;;;;;9.27;7.27;;;;;;;4.66;49.93;99285.19;5089833;28;40917;-76
2021/03/21 04:52:27;;;;;;;6.67;5.70;;;;;;;4.52;50.16;99260.31;5106871;28;43305;-76
2021/03/21 04:54:56;;;;;;;8.03;6.87;;;;;;;4.59;50.60;99265.31;5092662;28;42325;-76
2021/03/21 04:57:38;;;;;;;8.43;6.87;;;;;;;4.64;50.49;99276.53;5091025;28;41895;-77
2021/03/21 05:00:09;;;;;;;9.83;6.23;;;;;;;4.60;50.32;99261.78;5089892;28;40693;-76
2021/03/21 05:02:38;;;;;;;8.83;7.10;;;;;;;4.50;50.13;99251.63;5089676;28;42391;-76
2021/03/21 05:05:11;;;;;;;11.03;6.17;;;;;;;4.39;50.48;99232.75;5109167;28;41982;-75
2021/03/21 05:07:44;;;;;;;7.53;6.83;;;;;;;4.57;50.12;99258.41;5110450;28;39381;-76
2021/03/21 05:10:19;;;;;;;7.93;7.03;;;;;;;4.65;49.99;99262.50;5102390;28;41582;-76
2021/03/21 05:12:50;;;;;;;13.73;8.80;;;;;;;4.65;50.05;99252.00;5090524;28;43157;-76
2021/03/21 05:15:23;;;;;;;8.10;5.90;;;;;;;4.64;50.02;99244.19;5089854;28;42203;-76
2021/03/21 05:17:57;;;;;;;8.63;5.80;;;;;;;4.72;50.07;99246.53;5089640;28;40663;-76
2021/03/21 05:20:31;;;;;;;7.33;6.60;;;;;;;4.80;50.00;99255.03;5109238;28;42481;-75
2021/03/21 05:23:11;;;;;;;8.23;6.30;;;;;;;4.82;49.80;99268.97;5109742;28;42659;-76
2021/03/21 05:25:45;;;;;;;7.87;6.13;;;;;;;4.75;49.70;99262.19;5103229;28;43299;-75
2021/03/21 05:28:20;;;;;;;12.50;7.00;;;;;;;4.85;49.49;99268.84;5075431;28;40014;-76
2021/03/21 05:30:47;;;;;;;8.47;5.63;;;;;;;4.87;49.14;99267.03;5093234;28;40884;-76
2021/03/21 05:33:16;;;;;;;13.13;6.50;;;;;;;4.86;48.98;99278.44;5092722;28;42670;-76
2021/03/21 05:35:43;;;;;;;8.37;5.60;;;;;;;4.87;48.70;99267.03;5091991;28;42774;-75
2021/03/21 05:38:22;;;;;;;9.80;5.80;;;;;;;4.89;48.25;99280.97;5089055;28;39291;-76
2021/03/21 05:41:26;;;;;;;7.70;5.80;;;;;;;4.93;48.57;99277.34;5077678;28;40649;-75
2021/03/21 05:44:28;;;;;;;9.47;5.30;;;;;;;4.95;48.63;99279.00;5089874;28;43134;-76
2021/03/21 05:47:28;;;;;;;8.73;6.03;;;;;;;4.90;48.65;99267.81;5110489;27;41984;-75
2021/03/21 05:50:21;;;;;;;8.47;5.53;;;;;;;4.99;48.72;99287.63;5101131;28;40557;-75
2021/03/21 05:53:08;;;;;;;8.80;6.30;;;;;;;5.01;48.75;99293.69;5089427;28;41728;-76
2021/03/21 05:55:50;;;;;;;10.13;6.37;;;;;;;4.96;48.97;99277.22;5072470;28;42692;-76
2021/03/21 05:58:38;;;;;;;9.87;6.30;;;;;;;5.00;48.98;99284.97;5109259;28;43005;-76
2021/03/21 06:01:35;;;;;;;9.50;6.97;;;;;;;5.05;49.00;99290.06;5109279;28;39242;-76
2021/03/21 06:04:56;;;;;;;9.57;6.77;;;;;;;5.07;49.11;99291.72;5088388;28;41715;-76
2021/03/21 06:07:53;;;;;;;9.67;7.07;;;;;;;5.07;49.09;99277.72;5086228;28;41847;-76
2021/03/21 06:11:00;;;;;;;8.63;6.70;;;;;;;5.12;49.32;99278.44;5108832;28;42989;-75
2021/03/21 06:13:42;;;;;;;9.33;6.27;;;;;;;5.03;49.72;99239.38;5066178;28;38840;-75
2021/03/21 06:17:00;;;;;;;7.97;6.37;;;;;;;5.24;49.31;99257.03;5092055;28;41618;-76
2021/03/21 06:20:07;;;;;;;8.47;6.50;;;;;;;5.44;49.09;99258.94;5082976;27;42741;-76
2021/03/21 06:22:53;;;;;;;9.47;6.93;;;;;;;5.60;48.85;99251.38;5098188;27;41965;-74
2021/03/21 06:25:52;;;;;;;8.83;6.00;;;;;;;5.77;48.41;99252.50;5092798;28;40532;-75
2021/03/21 06:29:04;;;;;;;9.93;6.47;;;;;;;5.95;47.90;99250.97;5113433;27;41661;-76
2021/03/21 06:32:16;;;;;;;8.77;6.93;;;;;;;6.21;47.67;99247.34;5112103;28;43246;-77
2021/03/21 06:34:48;;;;;;;12.10;8.00;;;;;;;6.40;47.07;99255.41;5112071;28;42352;-76
2021/03/21 06:37:35;;;;;;;11.53;8.37;;;;;;;6.45;47.21;99238.50;5113712;27;40774;-76
2021/03/21 06:40:24;;;;;;;13.53;8.80;;;;;;;6.39;47.02;99230.00;5112148;28;41635;-76
2021/03/21 06:43:21;;;;;;;11.50;8.20;;;;;;;6.35;47.17;99241.56;5095346;28;42152;-75
2021/03/21 06:46:20;;;;;;;12.40;9.00;;;;;;;6.40;47.81;99260.66;5113382;27;42671;-75
2021/03/21 06:49:31;;;;;;;13.43;9.50;;;;;;;6.34;48.31;99259.09;5111779;28;39992;-76
2021/03/21 06:52:20;;;;;;;12.27;8.40;;;;;;;6.32;48.35;99254.81;5109726;28;41668;-76
2021/03/21 06:54:55;;;;;;;12.97;8.60;;;;;;;6.36;48.39;99261.69;5108810;28;41846;-76
2021/03/21 06:58:15;;;;;;;12.47;10.03;;;;;;;6.31;48.86;99250.47;5110597;27;42762;-76
2021/03/21 07:01:05;;;;;;;13.93;9.87;;;;;;;6.30;48.91;99247.00;5032562;28;40020;-76
2021/03/21 07:04:06;;;;;;;12.77;8.97;;;;;;;6.26;49.04;99234.88;5107223;28;41919;-75
2021/03/21 07:07:10;;;;;;;14.10;9.33;;;;;;;6.27;49.38;99220.81;5105155;28;43400;-76
2021/03/21 07:10:22;;;;;;;16.03;9.93;;;;;;;6.29;49.42;99236.56;5109274;28;41922;-75
2021/03/21 07:13:23;;;;;;;13.83;9.57;;;;;;;6.36;49.46;99215.19;5109799;27;40372;-75
2021/03/21 07:16:19;;;;;;;12.17;9.10;;;;;;;6.47;49.40;99206.88;5107691;28;41642;-75
2021/03/21 07:19:23;;;;;;;11.97;9.13;;;;;;;6.62;49.17;99203.63;5107625;28;43419;-76
2021/03/21 07:22:24;;;;;;;11.30;8.93;;;;;;;6.66;49.79;99194.69;5107108;28;42676;-75
2021/03/21 07:25:19;;;;;;;12.07;8.83;;;;;;;6.67;49.70;99185.88;5109027;28;39839;-76
2021/03/21 07:27:58;;;;;;;12.17;8.93;;;;;;;6.68;50.05;99178.81;5108321;28;42046;-75
2021/03/21 07:30:35;;;;;;;12.47;9.37;;;;;;;6.76;50.13;99188.13;5108828;27;42681;-75
2021/03/21 07:33:21;;;;;;;12.87;9.97;;;;;;;6.67;50.35;99166.59;5107342;28;42518;-76
2021/03/21 07:36:26;;;;;;;12.13;9.47;;;;;;;6.80;50.51;99165.13;5091311;28;39373;-75
2021/03/21 07:39:23;;;;;;;11.97;8.60;;;;;;;6.95;50.88;99153.09;5107201;28;41621;-75
2021/03/21 07:42:14;;;;;;;12.07;9.63;;;;;;;7.09;50.66;99159.50;5089728;28;41803;-75
2021/03/21 07:45:02;;;;;;;11.83;9.10;;;;;;;7.25;50.16;99157.03;5104039;28;42837;-77
2021/03/21 07:47:56;;;;;;;11.30;8.67;;;;;;;7.43;50.66;99164.13;5104693;28;40591;-77
2021/03/21 07:50:48;;;;;;;12.17;9.10;;;;;;;7.57;50.11;99159.09;5104915;28;41409;-77
2021/03/21 07:53:22;;;;;;;11.83;9.30;;;;;;;7.71;49.70;99183.97;5105160;28;42905;-77
2021/03/21 07:55:54;;;;;;;12.17;9.43;;;;;;;7.80;49.54;99200.19;5070703;28;42667;-77
2021/03/21 07:58:28;;;;;;;15.03;10.10;;;;;;;7.90;49.76;99195.38;5070339;28;40211;-77
2021/03/21 08:00:56;;;;;;;14.57;9.67;;;;;;;7.98;49.58;99195.88;5072866;28;41926;-78
2021/03/21 08:03:30;;;;;;;11.83;9.60;;;;;;;8.09;49.28;99196.22;5087476;28;41817;-76
2021/03/21 08:06:02;;;;;;;11.33;8.97;;;;;;;8.06;49.23;99191.09;5109177;27;42479;-77
2021/03/21 08:08:36;;;;;;;15.63;9.20;;;;;;;8.08;49.62;99189.25;5106916;27;40828;-77
2021/03/21 08:11:06;;;;;;;13.13;10.30;;;;;;;8.08;49.73;99173.41;5107328;28;41013;-76
2021/03/21 08:13:42;;;;;;;12.97;9.87;;;;;;;8.18;50.45;99189.66;5106662;28;43286;-77
2021/03/21 08:16:13;;;;;;;12.93;10.07;;;;;;;8.08;51.70;99178.69;5090449;28;42224;-76
2021/03/21 08:18:43;;;;;;;12.80;9.97;;;;;;;8.02;52.70;99168.44;5106794;28;39120;-77
2021/03/21 08:21:17;;;;;;;11.57;9.53;;;;;;;8.01;52.61;99172.00;5107006;28;41354;-77
2021/03/21 08:23:50;;;;;;;12.00;9.10;;;;;;;8.03;52.46;99178.06;5107175;28;42111;-76
2021/03/21 08:26:26;;;;;;;12.87;10.27;;;;;;;8.06;52.87;99164.72;5104056;28;41716;-77
2021/03/21 08:29:01;;;;;;;11.87;9.30;;;;;;;8.09;51.51;99151.38;5085985;28;41291;-76
2021/03/21 08:31:31;;;;;;;14.67;10.43;;;;;;;8.38;50.96;99183.47;5090968;28;41953;-77
2021/03/21 08:34:38;;;;;;;11.60;9.47;;;;;;;8.66;50.78;99186.44;5108934;27;43468;-76
2021/03/21 08:37:22;;;;;;;13.83;9.63;;;;;;;8.57;50.67;99177.22;5089416;28;41296;-77
2021/03/21 08:39:52;;;;;;;11.93;9.77;;;;;;;8.48;52.14;99167.13;5090834;28;40850;-77
2021/03/21 08:42:31;;;;;;;14.03;10.20;;;;;;;8.57;53.45;99160.50;5087817;28;41504;-77
2021/03/21 08:45:29;;;;;;;12.87;10.47;;;;;;;8.81;54.18;99161.94;5086955;28;43293;-77
2021/03/21 08:48:06;;;;;;;11.17;9.47;;;;;;;9.14;54.62;99155.88;5103903;28;41940;-78
2021/03/21 08:50:37;;;;;;;13.10;9.90;;;;;;;9.50;54.53;99148.66;5090379;28;39274;-76
2021/03/21 08:53:22;;;;;;;11.10;9.63;;;;;;;9.33;54.47;99138.09;5108147;27;41630;-76
2021/03/21 08:55:49;;;;;;;12.37;10.17;;;;;;;9.36;55.70;99138.81;5106738;28;42835;-76
2021/03/21 08:58:20;;;;;;;11.60;10.20;;;;;;;9.28;56.54;99132.19;5107776;27;41910;-77
2021/03/21 09:00:47;;;;;;;12.77;10.70;;;;;;;9.38;55.93;99133.44;5089227;28;40199;-76
2021/03/21 09:03:27;;;;;;;12.33;10.57;;;;;;;9.94;55.61;99142.72;5106022;28;40873;-76
2021/03/21 09:05:56;;;;;;;11.90;10.33;;;;;;;10.24;53.22;99162.22;5107424;27;42152;-76
2021/03/21 09:08:28;;;;;;;11.00;9.70;;;;;;;10.18;53.35;99161.66;5107005;28;42941;-76
2021/03/21 09:10:57;;;;;;;11.23;9.90;;;;;;;10.06;53.47;99152.63;5104582;28;39553;-76
2021/03/21 09:13:26;;;;;;;12.80;10.87;;;;;;;10.04;53.97;99165.09;5088756;28;42356;-77
2021/03/21 09:16:09;;;;;;;11.67;9.40;;;;;;;10.01;54.09;99154.69;5089577;28;42834;-76
2021/03/21 09:18:37;;;;;;;11.67;10.27;;;;;;;10.13;54.76;99148.72;5087122;28;41966;-76
2021/03/21 09:21:22;;;;;;;10.63;8.90;;;;;;;10.14;54.34;99150.41;5069461;28;39890;-76
2021/03/21 09:23:57;;;;;;;10.70;9.53;;;;;;;10.43;53.99;99130.25;5068054;28;40701;-77
2021/03/21 09:26:35;;;;;;;10.07;8.90;;;;;;;10.96;53.09;99139.50;5069647;28;42119;-76
2021/03/21 09:29:17;;;;;;;11.50;9.37;;;;;;;11.25;51.56;99148.38;5086677;28;42188;-77
2021/03/21 09:31:48;;;;;;;11.50;10.00;;;;;;;11.33;51.93;99138.16;5089326;28;41015;-76
2021/03/21 09:34:21;;;;;;;11.07;9.53;;;;;;;11.44;51.78;99133.03;5107524;28;43018;-76
2021/03/21 09:36:55;;;;;;;10.67;9.10;;;;;;;11.43;51.03;99128.69;5104685;27;43860;-77
2021/03/21 09:39:26;;;;;;;10.07;9.07;;;;;;;12.08;49.97;99147.63;5089082;28;41829;-76
2021/03/21 09:41:54;;;;;;;10.20;9.10;;;;;;;11.76;49.87;99158.44;5109075;28;40003;-77
2021/03/21 09:44:36;;;;;;;10.17;8.43;;;;;;;11.39;51.11;99149.22;5092679;28;41650;-76
2021/03/21 09:47:22;;;;;;;10.07;9.07;;;;;;;11.21;51.18;99153.00;5092873;28;41877;-76
2021/03/21 09:49:56;;;;;;;8.57;7.77;;;;;;;11.41;51.30;99146.47;5092472;28;41660;-76
2021/03/21 09:52:34;;;;;;;8.53;7.63;;;;;;;11.98;50.44;99147.34;5109922;28;38935;-76
2021/03/21 09:55:14;;;;;;;8.50;7.60;;;;;;;12.40;49.17;99137.56;5092511;28;40787;-78
2021/03/21 09:57:52;;;;;;;7.93;7.20;;;;;;;13.88;47.63;99153.06;5092952;28;42173;-78
2021/03/21 10:00:24;;;;;;;7.57;6.87;;;;;;;14.04;45.55;99168.78;5107735;27;42976;-78
2021/03/21 10:03:03;;;;;;;7.97;7.27;;;;;;;13.83;45.45;99173.00;5096064;28;38972;-80
2021/03/21 10:05:37;;;;;;;7.90;7.13;;;;;;;13.36;46.15;99144.38;5092509;28;40753;-78
2021/03/21 10:08:12;;;;;;;7.37;6.67;;;;;;;13.19;46.15;99159.69;5109833;28;42926;-77
2021/03/21 10:10:47;;;;;;;8.37;6.70;;;;;;;13.20;46.60;99161.41;5091209;28;42454;-78
2021/03/21 10:13:28;;;;;;;6.60;6.00;;;;;;;13.76;46.67;99164.56;5109801;28;41259;-77
2021/03/21 10:16:32;;;;;;;7.27;6.33;;;;;;;14.27;45.12;99159.13;5107293;28;41704;-77
2021/03/21 10:19:02;;;;;;;7.00;6.33;;;;;;;14.70;44.12;99143.56;5092055;28;43124;-79
2021/03/21 10:21:35;;;;;;;7.30;6.60;;;;;;;14.85;43.48;99106.84;5109022;28;42265;-79
2021/03/21 10:24:14;;;;;;;7.10;6.40;;;;;;;15.63;42.73;99147.91;5109309;28;39820;-78
2021/03/21 10:27:26;;;;;;;7.63;6.83;;;;;;;15.14;43.37;99145.50;5092813;28;41583;-77
2021/03/21 10:30:26;;;;;;;7.10;6.40;;;;;;;14.52;44.45;99136.91;5054698;28;42614;-78
2021/03/21 10:33:33;;;;;;;7.63;6.80;;;;;;;13.93;45.99;99118.97;5109612;28;41574;-76
2021/03/21 10:36:01;;;;;;;6.50;5.83;;;;;;;13.49;46.24;99129.25;5050783;28;39963;-77
2021/03/21 10:38:52;;;;;;;6.10;5.50;;;;;;;12.99;47.72;99106.97;5092230;28;42052;-77
2021/03/21 10:41:55;;;;;;;6.67;6.07;;;;;;;12.68;48.58;99099.38;5106694;28;43266;-78
2021/03/21 10:44:57;;;;;;;6.30;5.60;;;;;;;12.31;49.54;99096.53;5087518;28;41904;-76
2021/03/21 10:47:47;;;;;;;6.63;6.03;;;;;;;12.09;50.08;99085.59;5107218;28;40646;-77
2021/03/21 10:50:44;;;;;;;7.93;7.13;;;;;;;11.92;50.40;99080.53;5107647;28;41009;-78
2021/03/21 10:53:19;;;;;;;7.57;6.87;;;;;;;11.79;50.31;99086.63;5084562;28;42702;-76
2021/03/21 10:56:01;;;;;;;7.47;6.53;;;;;;;11.66;50.72;99093.63;5107467;28;41273;-77
2021/03/21 10:58:39;;;;;;;8.17;6.60;;;;;;;11.40;50.67;99075.81;5106330;28;40137;-77
2021/03/21 11:01:26;;;;;;;8.60;7.70;;;;;;;11.20;51.42;99094.78;5108560;28;40771;-76
2021/03/21 11:04:03;;;;;;;7.20;6.50;;;;;;;11.10;51.81;99089.19;5091116;28;42128;-76
2021/03/21 11:06:33;;;;;;;8.90;8.00;;;;;;;10.95;52.04;99084.81;5104054;28;42059;-77
2021/03/21 11:09:13;;;;;;;10.17;8.57;;;;;;;10.90;52.47;99077.13;5104304;28;39128;-76
2021/03/21 11:11:42;;;;;;;9.03;8.13;;;;;;;11.47;51.59;99093.06;5105138;27;40809;-77
2021/03/21 11:14:13;;;;;;;9.07;8.17;;;;;;;12.67;49.95;99113.63;5108336;27;43480;-77
2021/03/21 11:16:48;;;;;;;7.57;6.87;;;;;;;13.48;47.15;99127.53;5091241;28;41384;-77
2021/03/21 11:19:16;;;;;;;7.87;6.67;;;;;;;13.51;46.31;99133.50;5107251;28;41401;-76
2021/03/21 11:21:44;;;;;;;7.60;6.87;;;;;;;13.22;46.86;99134.72;5107732;28;41269;-77
2021/03/21 11:24:28;;;;;;;7.77;6.97;;;;;;;12.71;47.58;99128.41;5107485;28;43367;-78
2021/03/21 11:26:55;;;;;;;7.23;6.53;;;;;;;12.22;48.51;99108.59;5109804;27;42873;-77
2021/03/21 11:29:41;;;;;;;8.37;7.50;;;;;;;11.83;49.61;99116.47;5107187;28;39276;-75
2021/03/21 11:32:19;;;;;;;7.67;6.90;;;;;;;11.48;50.30;99116.00;5087718;28;40757;-78
2021/03/21 11:34:58;;;;;;;7.30;6.60;;;;;;;11.13;50.76;99095.13;5087466;28;42611;-78
2021/03/21 11:37:30;;;;;;;7.80;7.10;;;;;;;11.04;52.28;99095.69;5090498;28;41466;-75
2021/03/21 11:40:02;;;;;;;8.03;7.23;;;;;;;11.27;51.89;99085.47;5107072;28;38890;-78
2021/03/21 11:42:33;;;;;;;8.03;7.23;;;;;;;11.67;51.20;99076.75;5090234;28;41447;-76
2021/03/21 11:45:17;;;;;;;9.63;7.67;;;;;;;12.68;48.84;99078.97;5109181;27;42441;-78
2021/03/21 11:47:47;;;;;;;8.30;7.50;;;;;;;14.06;46.44;99104.78;5105361;28;41363;-77
2021/03/21 11:50:20;;;;;;;8.90;7.80;;;;;;;15.49;43.78;99113.41;5104255;28;39299;-79
2021/03/21 11:52:48;;;;;;;8.00;7.20;;;;;;;16.07;42.03;99123.00;5105075;28;41507;-78
2021/03/21 11:55:18;;;;;;;7.23;6.60;;;;;;;16.64;41.62;99127.28;5109142;27;42471;-78
2021/03/21 11:58:01;;;;;;;6.43;5.93;;;;;;;16.99;40.00;99110.09;5087334;28;42252;-79
2021/03/21 12:00:31;;;;;;;6.70;6.00;;;;;;;17.64;39.31;99114.31;5106053;28;39610;-78
2021/03/21 12:03:02;;;;;;;6.77;6.17;;;;;;;19.99;35.82;99121.13;5091288;28;41858;-77
2021/03/21 12:05:32;;;;;;;6.43;5.87;;;;;;;20.43;34.22;99135.63;5108571;27;42752;-78
2021/03/21 12:08:22;;;;;;;5.80;5.30;;;;;;;19.64;34.48;99130.75;5090812;28;42454;-77
2021/03/21 12:10:50;;;;;;;5.83;5.23;;;;;;;19.05;35.80;99116.69;5087203;28;42266;-77
2021/03/21 12:13:39;;;;;;;6.47;5.87;;;;;;;18.57;36.02;99114.84;5091901;28;42813;-77
2021/03/21 12:16:37;;;;;;;4.83;4.43;;;;;;;18.03;36.71;99092.03;5086044;28;42925;-77
2021/03/21 12:19:07;;;;;;;4.70;4.37;;;;;;;17.82;36.81;99080.53;5109079;27;42837;-77
2021/03/21 12:21:39;;;;;;;4.83;4.43;;;;;;;17.41;37.74;99066.25;5109805;27;20288;-79
2021/03/21 12:24:12;;;;;;;5.27;4.80;;;;;;;17.31;37.95;99076.03;5107506;27;42257;-77
2021/03/21 12:26:52;;;;;;;4.97;4.50;;;;;;;16.94;38.75;99058.81;5108199;28;43531;-77